Time;durP1;ratioP1;P1;durP2;ratioP2;P2;SDS_P1;SDS_P2;PMS_P1;PMS_P2;Temp;Humidity;BMP_temperature;BMP_pressure;BME280_temperature;BME280_humidity;BME280_pressure;Samples;Min_cycle;Max_cycle;Signal;HPM_P1;HPM_P2
2023/04/05 00:01:31;;;;;;;11.65;2.80;;;;;;;6.88;44.01;94372.41;5036392;28;20025;-93
2023/04/05 00:03:58;;;;;;;16.67;2.20;;;;;;;7.51;43.09;94371.22;5035856;28;20029;-93
2023/04/05 00:06:25;;;;;;;6.85;2.70;;;;;;;6.83;44.15;94366.38;5052793;28;20373;-93
2023/04/05 00:08:54;;;;;;;7.10;2.60;;;;;;;6.82;43.96;94368.19;5038961;28;20025;-93
2023/04/05 00:11:20;;;;;;;5.75;2.35;;;;;;;7.15;43.82;94373.50;5019783;28;20124;-92
2023/04/05 00:13:46;;;;;;;9.88;2.95;;;;;;;7.46;42.94;94366.78;5055816;28;20031;-93
2023/04/05 00:16:11;;;;;;;5.65;2.20;;;;;;;7.66;42.66;94372.38;5019596;28;20112;-93
2023/04/05 00:18:37;;;;;;;7.88;2.60;;;;;;;7.06;43.95;94368.72;5036875;28;20029;-93
2023/04/05 00:21:02;;;;;;;11.27;2.40;;;;;;;7.66;42.83;94369.78;5035788;28;20048;-93
2023/04/05 00:23:28;;;;;;;8.48;2.50;;;;;;;7.66;42.39;94367.97;5025606;28;20034;-93
2023/04/05 00:25:53;;;;;;;9.07;2.75;;;;;;;7.19;43.33;94374.56;5018567;28;20030;-93
2023/04/05 00:28:19;;;;;;;4.35;2.72;;;;;;;7.64;42.71;94368.22;5003549;28;20022;-93
2023/04/05 00:30:44;;;;;;;11.50;2.97;;;;;;;7.35;43.42;94372.91;5022083;28;20034;-93
2023/04/05 00:33:11;;;;;;;7.93;3.20;;;;;;;7.62;43.07;94367.69;5003471;28;20057;-93
2023/04/05 00:35:37;;;;;;;8.02;2.67;;;;;;;7.78;42.57;94365.19;5021094;28;20026;-92
2023/04/05 00:38:02;;;;;;;8.32;2.50;;;;;;;7.75;42.59;94373.53;5003708;28;20041;-94
2023/04/05 00:40:27;;;;;;;11.20;3.05;;;;;;;7.53;42.76;94374.41;5003435;28;20503;-93
2023/04/05 00:42:53;;;;;;;5.97;2.33;;;;;;;7.82;42.30;94365.50;5021931;28;20078;-93
2023/04/05 00:45:18;;;;;;;5.50;2.33;;;;;;;7.90;42.98;94359.81;5039280;28;20055;-93
2023/04/05 00:47:44;;;;;;;6.10;2.50;;;;;;;7.24;44.02;94376.44;5038853;28;20030;-93
2023/04/05 00:50:12;;;;;;;7.78;2.78;;;;;;;7.82;43.15;94358.47;5017709;28;20446;-93
2023/04/05 00:52:39;;;;;;;4.38;2.40;;;;;;;8.09;42.65;94365.41;5026228;28;20339;-94
2023/04/05 00:55:06;;;;;;;9.48;2.92;;;;;;;7.57;43.53;94367.66;5039065;28;20052;-94
2023/04/05 00:57:33;;;;;;;6.85;2.70;;;;;;;7.96;43.19;94361.41;5023472;28;20108;-94
2023/04/05 00:59:59;;;;;;;9.57;3.03;;;;;;;8.31;42.46;94356.69;5039015;28;20399;-93
2023/04/05 01:02:32;;;;;;;11.27;2.72;;;;;;;7.83;43.84;94367.06;5022677;28;20371;-94
2023/04/05 01:05:00;;;;;;;;;;;;;;;8.28;42.15;94365.78;5022954;28;20132;-93
2023/04/05 01:07:35;;;;;;;12.27;2.25;;;;;;;8.46;42.00;94353.34;5038987;28;19999;-93
2023/04/05 01:10:04;;;;;;;6.57;2.40;;;;;;;8.21;42.62;94358.19;5059693;28;20346;-92
2023/04/05 01:12:32;;;;;;;9.85;2.40;;;;;;;8.39;42.38;94353.56;5039009;28;20071;-93
2023/04/05 01:14:58;;;;;;;6.50;2.35;;;;;;;8.24;42.69;94348.28;5038699;28;20059;-93
2023/04/05 01:17:26;;;;;;;12.50;2.90;;;;;;;7.83;42.81;94352.22;5038974;28;20033;-93
2023/04/05 01:20:01;;;;;;;6.93;2.20;;;;;;;7.88;43.04;94351.44;5041988;28;20457;-93
2023/04/05 01:22:55;;;;;;;7.47;2.90;;;;;;;7.49;43.93;94358.47;5022903;28;20035;-93
2023/04/05 01:25:21;;;;;;;7.00;2.58;;;;;;;8.05;43.21;94348.69;5037803;28;20061;-94
2023/04/05 01:28:08;;;;;;;6.90;2.58;;;;;;;8.57;43.03;94354.22;5059377;28;20029;-94
2023/04/05 01:30:34;;;;;;;7.82;2.58;;;;;;;8.25;42.76;94357.66;5059335;28;20039;-93
2023/04/05 01:33:28;;;;;;;6.35;2.90;;;;;;;8.72;41.85;94356.91;5038725;28;20343;-93
2023/04/05 01:36:26;;;;;;;9.27;2.40;;;;;;;8.62;41.74;94362.88;5029157;28;20522;-93
2023/04/05 01:38:53;;;;;;;6.20;2.75;;;;;;;8.29;42.50;94354.31;4970531;28;20451;-93
2023/04/05 01:41:18;;;;;;;6.13;2.45;;;;;;;8.38;41.73;94359.06;5022211;28;20445;-93
2023/04/05 01:43:43;;;;;;;6.03;2.42;;;;;;;8.52;41.88;94360.22;5040296;28;20025;-94
2023/04/05 01:46:09;;;;;;;8.20;3.00;;;;;;;7.70;42.99;94363.06;5021639;28;20033;-94
2023/04/05 01:48:34;;;;;;;7.63;2.53;;;;;;;8.26;42.37;94351.44;5023049;28;20032;-93
2023/04/05 01:51:00;;;;;;;8.07;2.47;;;;;;;8.46;41.72;94359.38;5021869;28;20029;-93
2023/04/05 01:53:25;;;;;;;7.47;2.65;;;;;;;8.43;41.73;94351.25;5038003;28;20453;-93
2023/04/05 01:55:50;;;;;;;5.80;2.10;;;;;;;8.42;41.74;94353.09;5041238;28;20029;-94
2023/04/05 01:58:16;;;;;;;6.85;2.78;;;;;;;7.24;44.47;94360.81;5021703;28;20120;-93
2023/04/05 02:00:41;;;;;;;9.05;3.03;;;;;;;7.74;43.52;94357.06;5023368;28;20044;-94
2023/04/05 02:03:07;;;;;;;7.97;3.05;;;;;;;8.16;42.93;94359.97;5021370;28;20022;-93
2023/04/05 02:05:32;;;;;;;21.35;3.10;;;;;;;8.38;41.93;94353.84;5038374;28;20033;-94
2023/04/05 02:07:57;;;;;;;5.78;2.30;;;;;;;8.57;41.98;94357.63;5021275;28;20025;-93
2023/04/05 02:10:23;;;;;;;6.50;2.60;;;;;;;8.70;41.56;94359.00;5021175;28;20099;-93
2023/04/05 02:12:49;;;;;;;9.13;2.65;;;;;;;8.66;41.24;94349.31;5024146;28;20029;-93
2023/04/05 02:15:15;;;;;;;8.43;2.88;;;;;;;8.36;41.36;94354.09;5021189;28;20029;-92
2023/04/05 02:17:44;;;;;;;9.77;2.80;;;;;;;8.82;40.77;94355.34;5023063;28;20025;-94
2023/04/05 02:20:11;;;;;;;5.22;2.40;;;;;;;8.93;41.05;94351.75;5021629;28;20021;-93
2023/04/05 02:22:38;;;;;;;6.60;2.35;;;;;;;8.77;41.24;94350.94;5022411;28;20025;-94
2023/04/05 02:25:05;;;;;;;6.20;2.20;;;;;;;8.85;41.36;94354.88;5021210;28;20328;-93
2023/04/05 02:27:31;;;;;;;5.70;2.50;;;;;;;8.84;41.41;94353.31;5021444;28;20025;-93
2023/04/05 02:29:57;;;;;;;7.90;2.45;;;;;;;7.99;42.62;94350.47;5014610;28;20029;-93
2023/04/05 02:32:23;;;;;;;6.88;2.72;;;;;;;8.60;42.00;94351.09;5001207;28;20026;-94
2023/04/05 02:34:49;;;;;;;3.88;2.20;;;;;;;8.57;41.34;94349.00;5004077;28;20067;-92
2023/04/05 02:37:15;;;;;;;5.15;2.53;;;;;;;8.47;41.79;94349.72;5019004;28;20047;-94
2023/04/05 02:39:41;;;;;;;5.95;2.28;;;;;;;8.50;41.88;94351.84;5024212;28;20033;-95
2023/04/05 02:42:09;;;;;;;8.07;2.55;;;;;;;7.71;42.90;94356.81;5020719;28;20052;-93
2023/04/05 02:44:35;;;;;;;10.38;2.75;;;;;;;7.29;43.48;94355.66;5038388;28;20338;-93
2023/04/05 02:47:01;;;;;;;6.55;3.10;;;;;;;7.03;44.98;94358.00;5020809;28;20398;-94
2023/04/05 02:49:26;;;;;;;8.10;2.67;;;;;;;7.59;43.85;94347.31;5020293;28;20083;-93
2023/04/05 02:51:52;;;;;;;7.90;2.45;;;;;;;7.98;42.86;94355.97;5020707;28;20112;-94
2023/04/05 02:54:17;;;;;;;6.70;2.85;;;;;;;8.12;42.46;94357.09;5020724;28;20036;-94
2023/04/05 02:56:42;;;;;;;8.73;2.38;;;;;;;7.25;43.55;94354.56;5022587;28;20037;-94
2023/04/05 03:02:30;;;;;;;10.98;2.78;;;;;;;7.88;42.77;94347.03;5054775;28;20532;-94
2023/04/05 03:04:56;;;;;;;7.13;2.85;;;;;;;7.69;43.60;94357.03;5020301;28;20053;-93
2023/04/05 03:07:24;;;;;;;9.50;3.45;;;;;;;7.76;43.37;94355.03;5020591;28;20083;-93
2023/04/05 03:09:50;;;;;;;14.20;3.05;;;;;;;7.66;44.08;94354.13;5023668;28;20025;-94
2023/04/05 03:12:15;;;;;;;8.27;2.70;;;;;;;7.14;44.66;94359.69;5036783;28;20026;-93
2023/04/05 03:14:42;;;;;;;9.45;2.97;;;;;;;7.84;43.36;94352.97;5022423;28;20087;-94
2023/04/05 03:17:14;;;;;;;6.13;2.65;;;;;;;8.14;42.81;94360.25;5020081;28;20107;-93
2023/04/05 03:19:39;;;;;;;5.80;2.92;;;;;;;8.02;42.75;94357.78;5038052;28;20423;-94
2023/04/05 03:22:06;;;;;;;5.30;2.83;;;;;;;8.05;43.19;94359.13;5020297;28;20030;-93
2023/04/05 03:24:31;;;;;;;5.38;2.72;;;;;;;7.85;43.57;94350.13;5020858;28;20025;-94
2023/04/05 03:27:01;;;;;;;7.00;2.67;;;;;;;7.90;43.69;94352.78;5019998;28;20087;-94
2023/04/05 03:29:26;;;;;;;10.73;3.20;;;;;;;7.79;43.63;94356.34;5020060;28;20084;-93
2023/04/05 03:31:52;;;;;;;10.85;2.83;;;;;;;7.35;44.43;94355.44;5019929;28;20259;-93
2023/04/05 03:34:17;;;;;;;8.15;2.92;;;;;;;7.84;43.46;94350.38;5019988;28;20424;-94
2023/04/05 03:36:42;;;;;;;5.40;3.10;;;;;;;7.75;43.64;94352.66;5022400;28;20131;-93
2023/04/05 03:39:16;;;;;;;7.93;2.90;;;;;;;8.04;43.68;94342.69;5020061;28;20029;-93
2023/04/05 03:41:41;;;;;;;12.68;3.22;;;;;;;7.67;43.87;94347.88;5021946;28;20033;-93
2023/04/05 03:44:08;;;;;;;5.35;2.72;;;;;;;7.98;43.90;94348.91;5019898;28;20029;-93
2023/04/05 03:46:33;;;;;;;5.43;2.70;;;;;;;7.63;44.27;94348.38;5036980;28;20045;-94
2023/04/05 03:49:00;;;;;;;9.77;3.30;;;;;;;7.73;44.21;94346.91;5020096;28;20033;-94
2023/04/05 03:51:26;;;;;;;7.97;2.95;;;;;;;7.60;44.35;94345.47;5036206;28;20033;-93
2023/04/05 03:53:51;;;;;;;4.18;2.85;;;;;;;7.60;44.61;94340.28;5039302;28;20032;-94
2023/04/05 03:56:17;;;;;;;6.70;3.08;;;;;;;7.72;44.25;94340.88;5035981;28;20072;-94
2023/04/05 03:58:43;;;;;;;6.20;3.17;;;;;;;6.84;46.68;94339.31;5022269;28;20431;-93
2023/04/05 04:01:08;;;;;;;14.43;3.72;;;;;;;7.22;45.79;94345.41;5023675;28;20103;-94
2023/04/05 04:03:36;;;;;;;7.85;2.92;;;;;;;7.28;45.45;94341.84;5025048;28;20029;-94
2023/04/05 04:06:02;;;;;;;6.97;3.22;;;;;;;7.37;45.67;94344.78;5039978;28;20416;-94
2023/04/05 04:08:28;;;;;;;9.77;3.05;;;;;;;7.06;45.92;94340.06;5040429;28;20029;-94
2023/04/05 04:10:53;;;;;;;9.35;3.70;;;;;;;7.15;45.97;94337.78;5023635;28;20033;-93
2023/04/05 04:13:19;;;;;;;7.50;3.30;;;;;;;7.29;45.80;94335.59;5056293;28;20111;-92
2023/04/05 04:15:45;;;;;;;8.27;3.10;;;;;;;7.47;45.46;94342.28;5042270;28;20086;-94
2023/04/05 04:18:10;;;;;;;8.43;3.30;;;;;;;6.88;46.31;94341.16;5023483;28;20120;-93
2023/04/05 04:20:37;;;;;;;7.97;3.20;;;;;;;6.70;47.48;94333.69;5040872;28;20506;-93
2023/04/05 04:23:05;;;;;;;12.38;3.83;;;;;;;7.08;46.77;94339.81;5039729;28;20039;-93
2023/04/05 04:25:30;;;;;;;6.18;2.30;;;;;;;6.48;47.17;94350.88;5040055;28;20060;-94
2023/04/05 04:27:56;;;;;;;6.03;3.00;;;;;;;6.82;46.76;94339.56;5060513;28;20064;-94
2023/04/05 04:30:21;;;;;;;7.15;3.03;;;;;;;7.01;46.39;94340.00;5039492;28;20037;-93
2023/04/05 04:32:52;;;;;;;7.07;2.95;;;;;;;6.97;46.95;94341.53;5025899;28;20040;-94
2023/04/05 04:35:23;;;;;;;6.63;3.10;;;;;;;7.14;46.03;94346.66;5039956;28;20033;-93
2023/04/05 04:38:00;;;;;;;10.00;3.22;;;;;;;6.71;47.53;94337.84;5042618;28;20033;-92
2023/04/05 04:40:37;;;;;;;10.82;3.17;;;;;;;7.03;46.57;94345.75;5039166;28;20036;-93
2023/04/05 04:43:13;;;;;;;6.65;3.05;;;;;;;6.64;47.39;94338.84;5024098;28;20057;-93
2023/04/05 04:45:39;;;;;;;8.30;3.20;;;;;;;6.41;47.33;94350.28;5024678;28;20040;-94
2023/04/05 04:48:04;;;;;;;10.95;3.50;;;;;;;5.97;48.28;94343.13;5039374;28;20457;-94
2023/04/05 04:50:31;;;;;;;12.00;3.42;;;;;;;6.13;48.39;94340.78;5023708;28;20367;-93
2023/04/05 04:53:01;;;;;;;12.93;4.20;;;;;;;6.53;48.12;94342.34;5023153;28;20033;-93
2023/04/05 04:55:27;;;;;;;11.90;4.35;;;;;;;5.74;49.62;94346.69;5038931;28;20083;-93
2023/04/05 04:57:54;;;;;;;13.90;4.68;;;;;;;6.21;48.48;94346.34;5025984;28;20037;-93
2023/04/05 05:00:21;;;;;;;7.75;3.35;;;;;;;6.18;48.69;94341.63;5042252;28;20064;-92
2023/04/05 05:02:46;;;;;;;9.88;3.42;;;;;;;5.69;49.57;94342.22;5042290;28;20119;-93
2023/04/05 05:05:12;;;;;;;7.30;3.60;;;;;;;5.87;48.61;94351.59;5038804;28;20068;-94
2023/04/05 05:07:42;;;;;;;8.45;3.45;;;;;;;6.35;48.04;94351.22;5040273;28;20033;-93
2023/04/05 05:10:09;;;;;;;21.38;3.83;;;;;;;6.18;48.86;94353.88;5022410;28;20036;-93
2023/04/05 05:12:34;;;;;;;8.82;3.70;;;;;;;6.08;49.00;94347.50;5022982;28;20029;-93
2023/04/05 05:15:00;;;;;;;8.27;3.67;;;;;;;5.64;50.03;94352.53;5022408;28;20055;-93
2023/04/05 05:17:25;;;;;;;6.75;3.30;;;;;;;6.18;48.88;94351.28;5022328;28;20351;-93
2023/04/05 05:19:51;;;;;;;11.60;4.05;;;;;;;5.80;50.27;94341.34;5025313;28;20035;-92
2023/04/05 05:22:17;;;;;;;6.47;3.60;;;;;;;5.05;52.06;94356.22;5022856;28;20029;-92
2023/04/05 05:24:43;;;;;;;11.35;4.10;;;;;;;5.83;49.74;94357.50;5025994;28;20419;-92
2023/04/05 05:27:09;;;;;;;10.25;3.40;;;;;;;5.38;50.33;94354.72;5018723;28;20034;-92
2023/04/05 05:29:34;;;;;;;15.65;3.80;;;;;;;5.63;49.80;94358.75;5005039;28;20056;-92
2023/04/05 05:32:00;;;;;;;15.05;3.70;;;;;;;5.92;49.32;94369.84;5059176;28;20108;-93
2023/04/05 05:34:26;;;;;;;10.35;3.33;;;;;;;6.51;48.34;94362.63;5038465;28;20022;-94
2023/04/05 05:36:53;;;;;;;7.82;3.28;;;;;;;6.80;47.52;94359.84;5038543;28;20025;-93
2023/04/05 05:39:19;;;;;;;8.82;3.22;;;;;;;6.68;48.10;94364.38;5038127;28;20021;-93
2023/04/05 05:41:44;;;;;;;11.15;3.38;;;;;;;6.67;47.68;94371.41;5040528;28;20036;-93
2023/04/05 05:44:10;;;;;;;6.05;3.25;;;;;;;6.71;47.30;94369.09;5038437;28;20060;-94
2023/04/05 05:46:35;;;;;;;8.68;3.15;;;;;;;7.48;45.96;94372.53;5039685;28;20484;-93
2023/04/05 05:49:01;;;;;;;10.18;3.17;;;;;;;7.40;46.00;94366.97;5038104;28;20032;-93
2023/04/05 05:51:26;;;;;;;7.25;3.20;;;;;;;8.05;45.37;94369.56;5021640;28;20124;-93
2023/04/05 05:53:52;;;;;;;7.00;2.97;;;;;;;8.20;45.19;94367.06;5021781;28;20051;-93
2023/04/05 05:56:17;;;;;;;9.73;2.88;;;;;;;8.23;45.05;94372.81;5021727;28;20021;-93
2023/04/05 05:58:42;;;;;;;6.55;2.90;;;;;;;8.03;45.05;94372.44;5023887;28;20347;-93
2023/04/05 06:01:10;;;;;;;9.60;3.08;;;;;;;7.82;45.20;94368.91;5037808;28;20029;-94
2023/04/05 06:03:36;;;;;;;5.57;2.60;;;;;;;8.19;44.94;94367.31;5039039;28;20029;-93
2023/04/05 06:06:04;;;;;;;8.30;2.97;;;;;;;8.65;43.91;94369.41;5021512;28;20075;-93
2023/04/05 06:08:30;;;;;;;10.88;3.63;;;;;;;8.29;43.88;94371.81;5022132;28;20021;-93
2023/04/05 06:10:56;;;;;;;6.95;2.63;;;;;;;8.84;43.53;94376.81;5021186;28;20320;-93
2023/04/05 06:13:22;;;;;;;8.98;2.85;;;;;;;8.90;42.64;94368.75;5037535;28;20079;-93
2023/04/05 06:15:47;;;;;;;7.38;2.90;;;;;;;8.69;42.71;94365.25;5024107;28;20078;-93
2023/04/05 06:18:13;;;;;;;7.10;2.58;;;;;;;8.88;43.12;94376.03;5021265;28;20029;-93
2023/04/05 06:20:39;;;;;;;8.95;3.20;;;;;;;8.89;43.27;94366.38;5039083;28;20018;-94
2023/04/05 06:23:07;;;;;;;8.48;3.03;;;;;;;8.42;44.72;94370.56;5020146;28;20378;-95
2023/04/05 06:25:33;;;;;;;7.93;3.28;;;;;;;8.85;44.62;94371.31;5038879;28;20140;-94
2023/04/05 06:27:59;;;;;;;9.18;2.88;;;;;;;8.87;43.61;94374.44;5037233;28;20061;-94
2023/04/05 06:30:24;;;;;;;11.00;3.20;;;;;;;8.16;45.44;94379.03;5037378;28;20018;-93
2023/04/05 06:32:53;;;;;;;8.35;3.00;;;;;;;8.68;44.42;94373.34;5040579;28;20020;-94
2023/04/05 06:35:22;;;;;;;13.52;3.33;;;;;;;9.33;42.55;94376.41;5037686;28;20021;-94
2023/04/05 06:37:47;;;;;;;6.13;2.80;;;;;;;9.33;41.70;94370.44;5024060;28;20028;-93
2023/04/05 06:40:13;;;;;;;7.95;2.60;;;;;;;9.90;40.27;94378.31;5020925;28;20027;-94
2023/04/05 06:42:39;;;;;;;5.22;2.97;;;;;;;9.72;39.80;94372.53;5038885;28;20057;-94
2023/04/05 06:45:05;;;;;;;10.15;2.88;;;;;;;9.00;41.45;94373.22;5037009;28;20408;-93
2023/04/05 06:47:38;;;;;;;7.75;3.50;;;;;;;10.09;40.08;94377.78;5021078;28;20466;-94
2023/04/05 06:50:05;;;;;;;;;;;;;;;9.15;40.89;94372.44;5020843;28;20447;-94
2023/04/05 06:52:31;;;;;;;5.03;2.60;;;;;;;9.67;40.31;94369.13;5038041;28;19975;-93
2023/04/05 06:54:56;;;;;;;6.22;2.80;;;;;;;8.92;40.93;94373.69;5020639;28;20027;-95
2023/04/05 06:57:22;;;;;;;8.60;3.00;;;;;;;9.36;39.97;94369.91;5020671;28;20025;-95
2023/04/05 06:59:47;;;;;;;4.50;2.58;;;;;;;9.32;40.69;94381.91;5023610;28;20087;-94
2023/04/05 07:02:13;;;;;;;7.93;2.88;;;;;;;9.74;39.19;94383.53;5020454;28;20036;-94
2023/04/05 07:04:38;;;;;;;10.57;3.00;;;;;;;9.15;40.08;94377.69;5022512;28;20415;-94
2023/04/05 07:07:05;;;;;;;5.82;3.13;;;;;;;9.58;39.29;94371.47;5020680;28;20080;-94
2023/04/05 07:09:34;;;;;;;5.97;3.17;;;;;;;9.52;39.69;94372.53;5020759;28;20021;-94
2023/04/05 07:12:01;;;;;;;7.93;2.63;;;;;;;9.21;37.87;94365.41;5020333;28;20036;-94
2023/04/05 07:14:35;;;;;;;6.68;2.88;;;;;;;10.14;38.86;94373.31;5020346;28;20120;-94
2023/04/05 07:17:01;;;;;;;5.60;2.78;;;;;;;9.84;39.08;94384.59;5020308;28;20120;-94
2023/04/05 07:19:26;;;;;;;7.00;3.20;;;;;;;9.29;40.21;94377.19;5020369;28;20451;-94
2023/04/05 07:21:52;;;;;;;8.63;2.60;;;;;;;9.20;40.12;94374.31;5020267;28;20111;-94
2023/04/05 07:24:18;;;;;;;8.25;2.90;;;;;;;9.87;39.93;94377.00;5020194;28;20052;-94
2023/04/05 07:26:43;;;;;;;5.45;2.60;;;;;;;9.09;36.99;94378.72;5022371;28;20098;-94
2023/04/05 07:32:30;;;;;;;6.82;2.67;;;;;;;10.28;36.58;94378.03;5054401;28;20056;-94
2023/04/05 07:34:56;;;;;;;7.40;3.40;;;;;;;10.02;35.43;94376.19;5019758;28;20049;-95
2023/04/05 07:37:21;;;;;;;4.57;2.45;;;;;;;10.23;35.72;94375.41;5020059;28;20061;-95
2023/04/05 07:39:47;;;;;;;9.13;2.38;;;;;;;10.08;36.52;94373.59;5022668;28;20116;-94
2023/04/05 07:42:12;;;;;;;5.45;2.65;;;;;;;10.72;36.39;94379.25;5019986;28;20056;-94
2023/04/05 07:44:37;;;;;;;5.38;2.67;;;;;;;10.55;36.91;94372.47;5021405;28;20435;-93
2023/04/05 07:47:03;;;;;;;8.85;2.63;;;;;;;10.25;35.01;94379.31;5019742;28;20075;-94
2023/04/05 07:49:29;;;;;;;4.65;2.45;;;;;;;10.17;33.67;94379.84;5020408;28;20144;-94
2023/04/05 07:51:56;;;;;;;9.15;2.70;;;;;;;10.68;34.73;94375.59;5019789;28;20394;-94
2023/04/05 07:54:21;;;;;;;13.68;2.95;;;;;;;10.42;37.33;94376.44;5019837;28;20115;-95
2023/04/05 07:56:48;;;;;;;6.30;2.22;;;;;;;10.36;33.81;94387.94;5022835;28;20060;-94
2023/04/05 08:02:35;;;;;;;6.25;2.53;;;;;;;10.07;32.13;94387.72;5054800;28;20032;-94
2023/04/05 08:05:00;;;;;;;4.70;2.40;;;;;;;10.11;33.33;94389.53;5020061;28;20363;-96
2023/04/05 08:07:26;;;;;;;7.78;2.85;;;;;;;9.64;33.83;94391.38;5019965;28;20033;-94
2023/04/05 08:09:56;;;;;;;8.93;2.40;;;;;;;10.30;35.14;94381.94;5036131;28;20435;-95
2023/04/05 08:12:22;;;;;;;6.72;2.50;;;;;;;10.31;33.97;94380.88;5020176;28;20503;-94
2023/04/05 08:14:47;;;;;;;4.45;2.08;;;;;;;10.99;31.87;94385.97;5039049;28;20053;-95
2023/04/05 08:17:13;;;;;;;5.80;2.20;;;;;;;11.18;34.08;94379.03;5019735;28;20072;-94
2023/04/05 08:19:39;;;;;;;7.13;2.33;;;;;;;10.65;33.09;94389.22;5021410;28;20029;-94
2023/04/05 08:22:04;;;;;;;9.80;2.80;;;;;;;10.44;32.59;94397.13;5019598;28;20032;-94
2023/04/05 08:24:30;;;;;;;8.88;2.78;;;;;;;9.91;31.65;94398.22;5019825;28;20026;-94
2023/04/05 08:26:55;;;;;;;7.57;2.80;;;;;;;10.26;31.94;94398.47;5022835;28;20032;-94
2023/04/05 08:29:20;;;;;;;6.32;2.47;;;;;;;10.17;31.71;94391.13;5019563;28;20022;-94
2023/04/05 08:31:46;;;;;;;6.45;2.78;;;;;;;10.82;32.45;94384.44;5038767;28;20025;-94
2023/04/05 08:34:11;;;;;;;5.70;3.05;;;;;;;10.89;32.89;94387.56;5019776;28;20346;-94
2023/04/05 08:36:37;;;;;;;10.15;2.58;;;;;;;11.38;31.90;94400.19;5020810;28;20029;-95
2023/04/05 08:39:02;;;;;;;8.00;2.90;;;;;;;9.89;31.70;94397.66;5019504;28;20040;-94
2023/04/05 08:41:36;;;;;;;6.05;2.55;;;;;;;10.68;31.06;94397.31;5019517;28;20033;-94
2023/04/05 08:44:04;;;;;;;5.57;2.63;;;;;;;11.59;31.64;94403.47;5019793;28;20112;-93
2023/04/05 08:46:31;;;;;;;7.78;2.72;;;;;;;10.63;31.36;94404.44;5021344;28;20064;-94
2023/04/05 08:48:57;;;;;;;8.02;3.03;;;;;;;10.59;31.92;94398.94;5022912;28;20510;-93
2023/04/05 08:51:23;;;;;;;7.22;3.45;;;;;;;10.24;33.22;94403.94;5022851;28;20025;-94
2023/04/05 08:53:49;;;;;;;5.72;2.83;;;;;;;10.04;34.67;94384.59;5042336;28;20029;-93
2023/04/05 08:56:19;;;;;;;8.63;2.80;;;;;;;9.66;32.38;94396.34;5022931;28;20116;-94
2023/04/05 08:58:51;;;;;;;4.75;2.75;;;;;;;11.15;31.34;94405.03;5041606;28;20458;-94
2023/04/05 09:01:17;;;;;;;8.00;2.90;;;;;;;10.93;32.83;94395.69;5022772;28;20032;-95
2023/04/05 09:03:43;;;;;;;9.13;2.80;;;;;;;10.68;31.00;94407.03;5041769;28;20108;-94
2023/04/05 09:06:10;;;;;;;6.60;2.63;;;;;;;11.41;32.34;94397.81;5039087;28;20036;-93
2023/04/05 09:08:37;;;;;;;5.97;2.40;;;;;;;10.94;32.97;94401.72;5040188;28;20052;-94
2023/04/05 09:11:02;;;;;;;7.22;2.47;;;;;;;10.20;30.75;94410.75;5038935;28;20041;-94
2023/04/05 09:13:28;;;;;;;8.00;3.13;;;;;;;9.68;30.79;94392.44;5039132;28;20458;-94
2023/04/05 09:15:53;;;;;;;7.38;2.83;;;;;;;9.74;31.15;94396.59;5022666;28;20030;-92
2023/04/05 09:18:19;;;;;;;6.15;2.83;;;;;;;10.98;32.52;94411.41;5022802;28;20366;-94
2023/04/05 09:20:44;;;;;;;6.45;3.10;;;;;;;11.45;30.31;94414.56;5041161;28;20025;-94
2023/04/05 09:23:10;;;;;;;7.90;2.88;;;;;;;10.40;30.80;94411.78;5022385;28;20026;-94
2023/04/05 09:25:37;;;;;;;6.40;2.90;;;;;;;11.47;31.77;94411.69;5023645;28;20032;-94
2023/04/05 09:28:06;;;;;;;12.38;3.05;;;;;;;11.54;30.99;94411.38;5038604;28;20037;-94
2023/04/05 09:30:33;;;;;;;5.07;2.83;;;;;;;10.84;30.69;94408.56;5039249;28;20112;-94
2023/04/05 09:32:59;;;;;;;7.30;2.92;;;;;;;11.35;30.21;94406.78;5022148;28;20034;-95
2023/04/05 09:35:27;;;;;;;7.10;3.50;;;;;;;11.12;32.39;94416.84;5038881;28;20060;-93
2023/04/05 09:37:55;;;;;;;10.85;3.72;;;;;;;10.49;32.54;94419.91;5059272;28;20442;-94
2023/04/05 09:40:22;;;;;;;9.32;3.83;;;;;;;11.03;34.18;94405.34;5021921;28;20029;-94
2023/04/05 09:42:48;;;;;;;6.97;3.50;;;;;;;11.88;32.05;94408.00;5024904;28;20033;-94
2023/04/05 09:45:17;;;;;;;9.52;4.03;;;;;;;12.30;32.04;94405.88;5021797;28;20037;-94
2023/04/05 09:47:53;;;;;;;8.25;3.40;;;;;;;12.70;29.90;94411.81;5024015;28;20029;-94
2023/04/05 09:50:19;;;;;;;10.35;3.58;;;;;;;12.63;30.53;94411.34;5022082;28;20032;-93
2023/04/05 09:52:44;;;;;;;7.60;3.55;;;;;;;12.37;31.79;94400.31;5024313;28;20120;-93
2023/04/05 09:55:10;;;;;;;6.65;3.88;;;;;;;12.52;34.49;94400.16;5021609;28;20114;-92
2023/04/05 09:57:37;;;;;;;10.90;4.03;;;;;;;13.07;31.06;94414.81;5038987;28;20457;-94
2023/04/05 10:00:04;;;;;;;10.68;3.83;;;;;;;12.76;33.12;94402.00;5021681;28;20537;-94
2023/04/05 10:02:38;;;;;;;10.35;4.35;;;;;;;12.95;30.11;94390.75;5022337;28;20135;-93
2023/04/05 10:05:14;;;;;;;9.65;4.10;;;;;;;11.93;31.43;94394.06;5021414;28;20021;-93
2023/04/05 10:07:44;;;;;;;7.82;4.25;;;;;;;12.01;31.32;94414.50;5023723;28;20465;-93
2023/04/05 10:10:11;;;;;;;13.27;4.55;;;;;;;11.29;31.60;94395.53;5019515;28;20030;-93
2023/04/05 10:12:40;;;;;;;10.68;4.70;;;;;;;11.80;33.55;94405.97;5003116;28;20030;-94
2023/04/05 10:15:09;;;;;;;8.40;4.82;;;;;;;11.06;32.15;94406.66;5001825;28;20033;-94
2023/04/05 10:17:42;;;;;;;8.63;4.05;;;;;;;11.17;32.18;94414.19;5019036;28;20056;-93
2023/04/05 10:20:16;;;;;;;9.88;4.50;;;;;;;12.19;33.54;94404.41;5001648;28;20408;-94
2023/04/05 10:22:44;;;;;;;11.73;4.50;;;;;;;12.11;32.66;94411.03;5019514;28;20026;-94
2023/04/05 10:25:20;;;;;;;9.25;4.63;;;;;;;12.77;31.57;94387.00;5038403;28;20033;-92
2023/04/05 10:27:54;;;;;;;10.23;4.60;;;;;;;11.72;33.64;94397.63;5020051;28;20515;-94
2023/04/05 10:30:23;;;;;;;12.13;4.47;;;;;;;12.56;32.11;94398.53;5001844;28;20026;-94
2023/04/05 10:32:48;;;;;;;10.95;4.65;;;;;;;13.17;30.23;94398.13;5004174;28;20049;-94
2023/04/05 10:35:19;;;;;;;7.40;4.05;;;;;;;12.96;31.10;94400.22;5038754;28;20130;-93
2023/04/05 10:38:12;;;;;;;7.57;4.30;;;;;;;12.00;30.84;94407.69;5003911;28;20029;-92
2023/04/05 10:40:39;;;;;;;7.70;4.40;;;;;;;12.99;31.31;94407.53;5002615;28;20331;-93
2023/04/05 10:43:07;;;;;;;9.90;4.85;;;;;;;11.98;31.01;94396.66;5001124;28;20021;-93
2023/04/05 10:45:33;;;;;;;7.45;4.47;;;;;;;12.59;30.99;94402.44;5001526;28;20083;-92
2023/04/05 10:48:05;;;;;;;12.10;4.55;;;;;;;12.12;30.83;94391.59;5017659;28;20465;-93
2023/04/05 10:50:31;;;;;;;8.95;4.18;;;;;;;13.12;31.95;94393.69;5001486;28;20033;-93
2023/04/05 10:52:58;;;;;;;11.80;4.85;;;;;;;13.36;29.89;94398.16;5017424;28;20026;-94
2023/04/05 10:55:24;;;;;;;9.55;4.80;;;;;;;12.99;30.20;94386.50;5017234;28;20026;-93
2023/04/05 10:57:49;;;;;;;11.60;4.40;;;;;;;13.73;29.86;94392.41;5003742;28;20127;-94
2023/04/05 11:00:16;;;;;;;14.68;4.70;;;;;;;13.18;30.33;94388.38;5017010;28;20098;-94
2023/04/05 11:02:42;;;;;;;10.48;4.40;;;;;;;13.06;32.39;94392.22;5002659;28;20049;-94
2023/04/05 11:05:33;;;;;;;15.23;4.90;;;;;;;13.76;32.47;94391.81;5001034;28;20517;-93
2023/04/05 11:08:03;;;;;;;7.43;4.43;;;;;;;11.36;30.93;94383.94;5004180;28;20037;-93
2023/04/05 11:10:29;;;;;;;8.93;4.53;;;;;;;10.62;32.68;94395.78;5003558;28;20447;-93
2023/04/05 11:12:57;;;;;;;7.97;4.47;;;;;;;10.68;32.10;94383.44;5000852;28;20451;-94
2023/04/05 11:15:28;;;;;;;8.95;4.10;;;;;;;11.10;31.92;94387.50;5034212;28;20036;-94
2023/04/05 11:18:03;;;;;;;8.75;4.93;;;;;;;11.70;32.53;94391.09;5017169;28;20055;-93
2023/04/05 11:20:45;;;;;;;7.38;3.95;;;;;;;13.05;31.97;94377.47;5016920;28;20022;-94
2023/04/05 11:23:13;;;;;;;8.35;4.88;;;;;;;13.28;29.54;94375.09;5000808;28;20386;-94
2023/04/05 11:25:40;;;;;;;6.80;4.07;;;;;;;12.37;30.44;94385.31;5002084;28;20435;-93
2023/04/05 11:28:07;;;;;;;10.32;4.32;;;;;;;11.62;31.04;94379.34;5000341;28;20117;-94
2023/04/05 11:30:55;;;;;;;7.40;4.15;;;;;;;11.46;30.67;94376.78;5017174;28;20036;-93
2023/04/05 11:33:41;;;;;;;9.55;4.88;;;;;;;12.76;33.67;94375.69;5016678;28;20049;-94
2023/04/05 11:36:06;;;;;;;15.07;4.53;;;;;;;13.04;32.44;94368.00;5006583;28;20378;-93
2023/04/05 11:41:58;;;;;;;7.72;4.30;;;;;;;12.87;30.63;94363.25;5037215;28;20032;-94
2023/04/05 11:47:45;;;;;;;11.70;4.35;;;;;;;13.99;29.63;94371.72;5036176;28;20036;-93
2023/04/05 11:50:12;;;;;;;10.50;4.22;;;;;;;13.86;30.71;94373.22;5000127;28;20026;-94
2023/04/05 11:52:37;;;;;;;12.10;4.60;;;;;;;14.15;30.79;94372.25;5001821;28;20025;-93
2023/04/05 11:55:04;;;;;;;5.88;4.10;;;;;;;12.47;33.77;94368.66;5000373;28;20030;-94